Time;durP1;ratioP1;P1;durP2;ratioP2;P2;SDS_P1;SDS_P2;PMS_P1;PMS_P2;Temp;Humidity;BMP_temperature;BMP_pressure;BME280_temperature;BME280_humidity;BME280_pressure;Samples;Min_cycle;Max_cycle;Signal;HPM_P1;HPM_P2
2024/01/24 00:04:06;;;;;;;23.20;5.50;;;3.80;33.50;;;;;;10324821;28;20191;-83
2024/01/24 00:09:30;;;;;;;25.87;5.53;;;3.80;69.30;;;;;;10327410;28;20285;-82
2024/01/24 00:14:51;;;;;;;24.50;5.53;;;3.80;99.90;;;;;;10334998;28;20198;-82
2024/01/24 00:20:13;;;;;;;25.83;5.13;;;3.80;99.90;;;;;;10364252;28;20231;-83
2024/01/24 00:25:34;;;;;;;22.17;5.20;;;3.80;24.90;;;;;;10382033;28;20229;-82
2024/01/24 00:30:56;;;;;;;16.30;4.57;;;3.80;1.00;;;;;;10354612;28;20283;-81
2024/01/24 00:36:17;;;;;;;18.90;4.80;;;3.80;1.00;;;;;;10354296;28;20222;-82
2024/01/24 00:41:41;;;;;;;24.60;5.63;;;3.80;1.00;;;;;;10355636;28;20267;-83
2024/01/24 00:47:02;;;;;;;22.10;5.37;;;3.80;1.00;;;;;;10291656;28;20229;-82
2024/01/24 00:52:24;;;;;;;25.33;5.03;;;3.70;1.00;;;;;;10387192;28;20249;-83
2024/01/24 00:57:45;;;;;;;17.70;4.70;;;3.60;28.90;;;;;;10326097;28;20256;-81
2024/01/24 01:03:08;;;;;;;18.20;5.23;;;3.70;1.00;;;;;;10365684;28;20508;-83
2024/01/24 01:08:29;;;;;;;24.47;4.63;;;3.70;1.00;;;;;;10288935;28;20224;-82
2024/01/24 01:13:50;;;;;;;21.67;5.70;;;3.80;1.00;;;;;;10369692;28;20368;-82
2024/01/24 01:19:12;;;;;;;18.80;4.47;;;3.70;99.90;;;;;;10428908;28;20456;-82
2024/01/24 01:24:34;;;;;;;21.10;5.10;;;3.80;99.90;;;;;;10295261;28;20267;-83
2024/01/24 01:29:56;;;;;;;20.33;4.27;;;3.70;99.90;;;;;;10364314;28;20203;-83
2024/01/24 01:35:17;;;;;;;13.23;3.53;;;3.80;1.00;;;;;;10295007;28;20473;-83
2024/01/24 01:40:38;;;;;;;19.87;5.07;;;3.70;99.90;;;;;;10378693;28;20202;-83
2024/01/24 01:46:06;;;;;;;22.20;5.07;;;3.80;1.00;;;;;;10395214;28;20234;-83
2024/01/24 01:51:28;;;;;;;22.97;5.47;;;3.80;1.00;;;;;;10398523;28;20202;-83
2024/01/24 01:56:49;;;;;;;20.27;5.47;;;3.80;1.00;;;;;;10333881;28;20225;-81
2024/01/24 02:02:11;;;;;;;20.13;4.67;;;3.80;1.00;;;;;;10367523;28;20278;-81
2024/01/24 02:07:32;;;;;;;10.70;4.00;;;3.80;1.00;;;;;;10377795;28;20229;-81
2024/01/24 02:12:54;;;;;;;15.57;3.53;;;3.80;1.00;;;;;;10520480;28;20266;-83
2024/01/24 02:18:15;;;;;;;21.87;5.87;;;3.70;99.90;;;;;;10433593;28;20288;-83
2024/01/24 02:23:39;;;;;;;23.20;5.40;;;3.80;99.90;;;;;;10435210;28;20218;-83
2024/01/24 02:29:00;;;;;;;18.23;5.40;;;3.80;99.90;;;;;;10429544;28;20279;-83
2024/01/24 02:34:21;;;;;;;13.53;5.07;;;3.70;1.00;;;;;;10417272;28;20275;-82
2024/01/24 02:39:42;;;;;;;18.77;6.80;;;3.60;1.00;;;;;;10306211;28;20198;-81
2024/01/24 02:45:06;;;;;;;17.23;4.70;;;3.70;1.00;;;;;;10384759;28;20217;-81
2024/01/24 02:50:27;;;;;;;17.83;4.80;;;3.80;99.90;;;;;;10353840;28;20207;-81
2024/01/24 02:55:48;;;;;;;21.10;4.57;;;3.70;99.90;;;;;;10353232;28;20199;-81
2024/01/24 03:01:11;;;;;;;20.93;5.10;;;3.60;1.00;;;;;;10304466;28;20254;-81
2024/01/24 03:06:33;;;;;;;18.37;4.80;;;3.60;99.90;;;;;;10432228;28;20241;-82
2024/01/24 03:11:54;;;;;;;16.87;4.43;;;3.60;1.00;;;;;;10509088;28;20226;-82
2024/01/24 03:17:15;;;;;;;15.83;4.17;;;3.60;99.90;;;;;;10456291;28;20196;-82
2024/01/24 03:22:37;;;;;;;24.90;4.70;;;3.70;1.00;;;;;;10363701;28;20252;-83
2024/01/24 03:27:58;;;;;;;18.63;5.20;;;3.70;99.90;;;;;;10339329;28;20213;-82
2024/01/24 03:33:19;;;;;;;13.53;4.00;;;3.60;1.00;;;;;;10338491;28;20243;-82
2024/01/24 03:38:43;;;;;;;20.80;4.40;;;3.60;99.90;;;;;;10338082;28;20206;-81
2024/01/24 03:44:04;;;;;;;19.20;5.97;;;3.60;99.90;;;;;;10379972;28;20190;-83
2024/01/24 03:49:26;;;;;;;22.60;5.13;;;3.50;99.90;;;;;;10292517;28;20233;-79
2024/01/24 03:54:47;;;;;;;15.27;4.60;;;3.60;1.00;;;;;;10350938;28;20273;-81
2024/01/24 04:00:10;;;;;;;22.77;5.47;;;3.50;5.30;;;;;;10312720;28;20285;-81
2024/01/24 04:05:37;;;;;;;17.90;4.63;;;3.30;1.00;;;;;;10367671;28;20231;-81
2024/01/24 04:10:58;;;;;;;24.10;6.10;;;3.20;51.40;;;;;;10398250;28;20521;-83
2024/01/24 04:16:20;;;;;;;22.07;5.70;;;3.30;1.00;;;;;;10462264;28;20199;-83
2024/01/24 04:21:43;;;;;;;13.63;5.03;;;3.20;1.00;;;;;;10350141;28;20261;-84
2024/01/24 04:27:06;;;;;;;16.33;5.30;;;3.20;99.90;;;;;;10378791;28;20218;-81
2024/01/24 04:32:30;;;;;;;19.93;5.53;;;3.20;1.00;;;;;;10337138;28;20206;-83
2024/01/24 04:37:51;;;;;;;18.77;5.93;;;3.20;76.30;;;;;;10350427;28;20208;-83
2024/01/24 04:43:14;;;;;;;18.10;6.33;;;3.30;43.80;;;;;;10349966;28;20440;-83
2024/01/24 04:48:37;;;;;;;12.00;4.83;;;3.30;99.90;;;;;;10310218;28;20273;-84
2024/01/24 04:53:58;;;;;;;18.60;5.37;;;3.30;99.90;;;;;;10340887;28;20498;-82
2024/01/24 04:59:19;;;;;;;15.93;5.30;;;3.30;99.90;;;;;;10358876;28;20202;-83
2024/01/24 05:04:41;;;;;;;12.03;4.70;;;3.30;1.00;;;;;;10295229;28;20209;-81
2024/01/24 05:10:03;;;;;;;14.87;5.10;;;3.30;1.00;;;;;;10295483;28;20363;-83
2024/01/24 05:15:25;;;;;;;12.33;4.80;;;3.30;1.00;;;;;;10328953;28;20215;-81
2024/01/24 05:20:46;;;;;;;12.80;6.30;;;3.40;1.00;;;;;;10470854;28;20243;-83
2024/01/24 05:26:07;;;;;;;12.50;5.43;;;3.30;1.00;;;;;;10493732;28;20230;-80
2024/01/24 05:31:29;;;;;;;8.17;4.07;;;3.30;1.00;;;;;;10479560;28;20195;-80
2024/01/24 05:36:50;;;;;;;11.50;5.10;;;3.30;1.00;;;;;;10476940;28;20199;-80
2024/01/24 05:42:12;;;;;;;16.33;5.50;;;3.40;1.00;;;;;;10476779;28;20196;-82
2024/01/24 05:47:34;;;;;;;11.80;7.00;;;3.40;1.00;;;;;;10415211;28;20231;-81
2024/01/24 05:52:55;;;;;;;13.67;7.57;;;3.30;1.00;;;;;;10268113;29;20197;-80
2024/01/24 05:58:18;;;;;;;10.77;6.07;;;3.30;1.00;;;;;;10277625;28;20500;-79
2024/01/24 06:03:40;;;;;;;11.27;5.10;;;3.40;1.00;;;;;;10267239;28;20196;-80
2024/01/24 06:09:02;;;;;;;30.00;14.93;;;3.40;1.00;;;;;;10267342;28;20243;-84
2024/01/24 06:14:23;;;;;;;20.07;9.37;;;3.40;1.00;;;;;;10352409;28;20248;-84
2024/01/24 06:19:44;;;;;;;4.23;2.70;;;3.50;53.00;;;;;;10341427;28;20237;-84
2024/01/24 06:25:07;;;;;;;8.23;4.37;;;3.70;1.00;;;;;;10341007;28;20507;-85
2024/01/24 06:30:28;;;;;;;56.50;18.63;;;3.80;1.00;;;;;;10347441;28;20274;-83
2024/01/24 06:35:50;;;;;;;7.53;4.27;;;3.80;1.00;;;;;;10401897;28;20237;-82
2024/01/24 06:41:13;;;;;;;3.70;2.57;;;3.90;1.00;;;;;;10300258;28;20274;-85
2024/01/24 06:46:44;;;;;;;8.40;4.80;;;3.90;1.00;;;;;;10395377;28;20230;-84
2024/01/24 06:52:06;;;;;;;6.17;4.03;;;3.90;1.00;;;;;;10273316;28;20234;-84
2024/01/24 06:57:27;;;;;;;6.90;4.13;;;4.00;2.10;;;;;;10294827;28;20244;-79
2024/01/24 07:02:49;;;;;;;7.60;3.10;;;3.90;39.40;;;;;;10356848;28;20207;-80
2024/01/24 07:08:12;;;;;;;2.30;1.60;;;4.00;77.40;;;;;;10359867;28;20227;-80
2024/01/24 07:13:34;;;;;;;5.40;2.30;;;4.10;99.90;;;;;;10359693;28;20195;-84
2024/01/24 07:18:55;;;;;;;3.33;1.90;;;4.20;80.30;;;;;;10397906;28;20313;-83
2024/01/24 07:24:16;;;;;;;2.90;2.00;;;4.20;99.90;;;;;;10383758;28;20248;-84
2024/01/24 07:29:37;;;;;;;4.30;1.67;;;4.30;99.90;;;;;;10398700;28;20227;-83
2024/01/24 07:34:59;;;;;;;3.50;2.37;;;4.40;99.90;;;;;;10383297;28;20283;-82
2024/01/24 07:40:20;;;;;;;4.90;1.97;;;4.40;99.90;;;;;;10325540;28;20209;-84
2024/01/24 07:45:42;;;;;;;4.53;2.43;;;4.50;99.90;;;;;;10297340;28;20513;-84
2024/01/24 07:51:04;;;;;;;12.07;7.60;;;4.60;99.90;;;;;;10342884;28;20283;-84
2024/01/24 07:56:25;;;;;;;15.10;6.80;;;4.60;99.90;;;;;;10284597;28;20204;-83
2024/01/24 08:01:47;;;;;;;19.37;7.03;;;4.70;99.90;;;;;;10322823;28;20205;-81
2024/01/24 08:07:08;;;;;;;12.30;6.40;;;4.60;99.90;;;;;;10367293;28;20278;-83
2024/01/24 08:12:30;;;;;;;4.33;3.30;;;4.70;99.90;;;;;;10409472;28;20516;-81
2024/01/24 08:17:51;;;;;;;8.60;4.60;;;4.70;99.90;;;;;;10517753;28;20259;-81
2024/01/24 08:23:12;;;;;;;10.70;6.17;;;4.70;99.90;;;;;;10482741;28;20204;-81
2024/01/24 08:28:34;;;;;;;33.37;12.87;;;4.90;99.90;;;;;;10285585;28;20263;-87
2024/01/24 08:33:55;;;;;;;47.30;19.43;;;4.90;99.90;;;;;;10292342;28;20241;-85
2024/01/24 08:39:16;;;;;;;19.77;7.93;;;5.00;99.90;;;;;;10289594;28;20210;-82
2024/01/24 08:44:38;;;;;;;27.07;12.13;;;5.00;99.90;;;;;;10252006;28;20215;-83
2024/01/24 08:49:59;;;;;;;26.50;9.77;;;5.20;99.90;;;;;;10284722;28;20556;-85
2024/01/24 08:55:21;;;;;;;16.00;8.70;;;5.20;99.90;;;;;;10367162;28;20206;-84
2024/01/24 09:00:44;;;;;;;16.63;7.53;;;5.40;99.90;;;;;;10294012;28;20231;-84
2024/01/24 09:06:06;;;;;;;8.10;4.07;;;5.50;99.90;;;;;;10290670;28;20223;-89
2024/01/24 09:11:27;;;;;;;12.37;6.30;;;5.60;99.90;;;;;;10373050;28;20552;-83
2024/01/24 09:16:49;;;;;;;8.90;4.27;;;5.70;99.90;;;;;;10396748;28;20189;-84
2024/01/24 09:22:10;;;;;;;7.87;4.53;;;5.80;99.90;;;;;;10407400;28;20593;-82
2024/01/24 09:27:31;;;;;;;9.60;5.07;;;5.80;99.90;;;;;;10301879;28;20304;-87
2024/01/24 09:32:53;;;;;;;9.37;4.90;;;5.90;99.90;;;;;;10289917;28;20496;-87
2024/01/24 09:38:15;;;;;;;14.87;8.50;;;6.00;99.90;;;;;;10287653;28;20284;-84
2024/01/24 09:43:39;;;;;;;7.73;3.70;;;6.10;99.90;;;;;;10303984;28;20526;-88
2024/01/24 09:49:01;;;;;;;4.63;2.10;;;6.20;99.90;;;;;;10392512;28;20231;-80
2024/01/24 09:54:24;;;;;;;6.27;2.33;;;6.30;99.90;;;;;;10390913;28;20201;-85
2024/01/24 09:59:45;;;;;;;4.13;2.00;;;6.30;99.90;;;;;;10340424;28;20217;-84
2024/01/24 10:05:12;;;;;;;8.70;2.97;;;6.40;99.90;;;;;;10266378;28;20201;-84
2024/01/24 10:10:33;;;;;;;12.43;2.90;;;6.50;99.90;;;;;;10448056;28;20232;-88
2024/01/24 10:15:56;;;;;;;15.23;2.97;;;6.70;99.90;;;;;;10437530;28;20378;-81
2024/01/24 10:21:17;;;;;;;16.37;3.47;;;6.80;99.90;;;;;;10498118;28;20335;-84
2024/01/24 10:26:39;;;;;;;15.07;3.57;;;7.00;99.90;;;;;;10299831;28;20229;-86
2024/01/24 10:32:01;;;;;;;16.67;3.17;;;7.10;99.90;;;;;;10354785;28;20229;-83
2024/01/24 10:37:22;;;;;;;23.23;5.07;;;7.10;99.90;;;;;;10400628;28;20229;-81
2024/01/24 10:42:48;;;;;;;21.67;3.97;;;7.10;99.90;;;;;;10290704;28;20284;-85
2024/01/24 10:48:11;;;;;;;25.80;4.13;;;7.20;62.80;;;;;;10311991;28;20220;-89
2024/01/24 10:53:35;;;;;;;21.13;3.97;;;7.30;2.00;;;;;;10310069;28;20201;-84
2024/01/24 10:59:00;;;;;;;27.60;5.23;;;7.40;1.00;;;;;;10376039;28;20206;-83
2024/01/24 11:04:23;;;;;;;20.57;4.03;;;7.40;1.00;;;;;;10351795;28;20218;-87
2024/01/24 11:10:07;;;;;;;17.33;3.50;;;7.40;1.00;;;;;;10339265;28;20246;-79
2024/01/24 11:15:30;;;;;;;21.37;3.43;;;7.40;1.00;;;;;;10402606;28;20420;-83
2024/01/24 11:21:01;;;;;;;16.73;3.40;;;7.30;1.00;;;;;;10406510;28;20261;-81
2024/01/24 11:26:24;;;;;;;25.50;3.23;;;7.30;1.00;;;;;;10307991;28;20230;-82
2024/01/24 11:31:48;;;;;;;19.93;4.07;;;7.30;1.00;;;;;;10310984;28;20239;-79
2024/01/24 11:37:15;;;;;;;21.53;4.17;;;7.40;1.00;;;;;;10329827;28;20288;-80
2024/01/24 11:42:42;;;;;;;28.47;4.53;;;7.40;1.00;;;;;;10307084;28;20266;-81
2024/01/24 11:48:07;;;;;;;24.53;4.27;;;7.40;1.00;;;;;;10331203;28;20243;-80
2024/01/24 11:53:29;;;;;;;27.43;4.83;;;7.50;99.90;;;;;;10332664;28;20222;-84
2024/01/24 11:58:50;;;;;;;16.17;3.83;;;7.50;99.90;;;;;;10315414;28;20563;-83
2024/01/24 12:04:12;;;;;;;22.20;4.50;;;7.50;99.90;;;;;;10371839;28;20297;-84
2024/01/24 12:09:34;;;;;;;24.57;4.63;;;7.50;99.90;;;;;;10345319;28;20244;-87
2024/01/24 12:14:58;;;;;;;20.33;3.60;;;7.50;1.00;;;;;;10388982;28;20204;-83
2024/01/24 12:20:20;;;;;;;24.17;5.97;;;7.50;1.00;;;;;;10464255;28;20348;-83
2024/01/24 12:25:43;;;;;;;27.20;4.20;;;7.40;99.90;;;;;;10376532;28;20217;-82
2024/01/24 12:31:04;;;;;;;22.17;3.60;;;7.30;99.90;;;;;;10379084;28;20212;-86
2024/01/24 12:36:27;;;;;;;18.97;3.70;;;7.30;99.90;;;;;;10386218;28;20424;-85
2024/01/24 12:41:52;;;;;;;19.37;3.60;;;7.30;1.00;;;;;;10306548;28;20200;-82
2024/01/24 12:47:17;;;;;;;18.27;3.37;;;7.40;99.90;;;;;;10290701;28;20232;-81
2024/01/24 12:52:42;;;;;;;13.90;2.97;;;7.30;1.00;;;;;;10305200;28;20425;-78
2024/01/24 12:58:04;;;;;;;20.77;3.30;;;7.20;99.90;;;;;;10349871;28;20262;-86
2024/01/24 13:03:25;;;;;;;26.97;3.80;;;7.10;99.90;;;;;;10356898;28;20239;-84
2024/01/24 13:08:47;;;;;;;15.67;3.93;;;7.10;1.00;;;;;;10400691;28;20329;-89
2024/01/24 13:14:08;;;;;;;19.47;4.20;;;7.10;1.00;;;;;;10290360;28;20257;-81
2024/01/24 13:19:30;;;;;;;18.10;4.33;;;7.00;1.00;;;;;;10507950;28;20251;-83
2024/01/24 13:24:52;;;;;;;14.17;3.70;;;7.10;1.00;;;;;;10439963;28;20200;-83
2024/01/24 13:30:14;;;;;;;15.43;2.80;;;7.10;1.00;;;;;;10374042;28;20304;-81
2024/01/24 13:35:35;;;;;;;9.30;2.03;;;7.10;1.00;;;;;;10357346;28;20224;-87
2024/01/24 13:40:57;;;;;;;11.70;2.30;;;7.10;1.00;;;;;;10263021;28;20392;-87
2024/01/24 13:46:18;;;;;;;13.47;2.70;;;7.10;1.00;;;;;;10319170;28;20292;-80
2024/01/24 13:51:40;;;;;;;13.50;2.70;;;7.10;1.00;;;;;;10384689;28;20294;-80
2024/01/24 13:57:02;;;;;;;12.07;4.60;;;7.10;99.90;;;;;;10373495;28;20410;-80
2024/01/24 14:02:23;;;;;;;10.77;2.50;;;7.10;99.90;;;;;;10295918;28;20212;-83
2024/01/24 14:07:44;;;;;;;10.40;2.43;;;7.00;99.90;;;;;;10374191;28;20421;-79
2024/01/24 14:13:06;;;;;;;13.07;2.67;;;7.00;99.90;;;;;;10372807;28;20255;-87
2024/01/24 14:18:27;;;;;;;16.80;4.60;;;7.10;1.00;;;;;;10499177;28;20282;-89
2024/01/24 14:23:48;;;;;;;9.63;2.07;;;7.00;1.00;;;;;;10513228;28;20409;-85
2024/01/24 14:29:12;;;;;;;11.60;2.53;;;7.00;99.90;;;;;;10332072;28;20320;-90
2024/01/24 14:34:33;;;;;;;13.53;2.27;;;7.00;99.90;;;;;;10373518;28;20226;-85
2024/01/24 14:39:55;;;;;;;7.77;2.20;;;6.90;1.00;;;;;;10395213;28;20207;-84
2024/01/24 14:45:16;;;;;;;14.20;2.03;;;6.90;1.00;;;;;;10372344;28;20200;-84
2024/01/24 14:50:38;;;;;;;6.80;2.23;;;6.90;1.00;;;;;;10310747;28;20232;-83
2024/01/24 14:55:59;;;;;;;12.57;2.50;;;6.80;1.00;;;;;;10303812;28;20241;-83
2024/01/24 15:01:21;;;;;;;9.93;3.10;;;6.80;1.00;;;;;;10370557;28;20211;-88
2024/01/24 15:06:44;;;;;;;16.03;2.60;;;6.80;1.00;;;;;;10304486;28;20235;-88
2024/01/24 15:12:08;;;;;;;11.80;2.23;;;6.80;1.00;;;;;;10304705;28;20234;-89
2024/01/24 15:17:31;;;;;;;11.90;1.97;;;6.80;1.00;;;;;;10353929;28;20205;-87
2024/01/24 15:22:52;;;;;;;12.37;2.10;;;6.80;1.00;;;;;;10298720;28;20242;-87
2024/01/24 15:28:14;;;;;;;6.73;1.60;;;6.80;1.00;;;;;;10413317;28;20233;-81
2024/01/24 15:33:37;;;;;;;6.07;1.60;;;6.80;1.00;;;;;;10378110;28;20201;-83
2024/01/24 15:39:01;;;;;;;4.73;1.50;;;6.80;1.00;;;;;;10307040;28;20251;-90
2024/01/24 15:44:23;;;;;;;5.57;1.67;;;6.70;1.00;;;;;;10319789;28;20217;-86
2024/01/24 15:49:45;;;;;;;5.37;1.50;;;6.70;23.90;;;;;;10349581;28;20323;-86
2024/01/24 15:55:07;;;;;;;4.30;1.87;;;6.70;65.80;;;;;;10294269;28;20215;-86
2024/01/24 16:00:28;;;;;;;3.63;0.97;;;6.70;51.50;;;;;;10391183;28;20225;-88
2024/01/24 16:05:51;;;;;;;2.30;1.20;;;6.70;13.30;;;;;;10291204;28;20249;-88
2024/01/24 16:11:13;;;;;;;4.27;1.07;;;6.70;11.60;;;;;;10362985;28;20271;-87
2024/01/24 16:16:36;;;;;;;5.97;1.30;;;6.50;99.90;;;;;;10342826;28;20201;-84
2024/01/24 16:21:57;;;;;;;2.53;0.97;;;6.50;99.90;;;;;;10330769;28;20319;-83
2024/01/24 16:27:18;;;;;;;6.50;1.40;;;6.60;99.90;;;;;;10327716;28;20222;-84
2024/01/24 16:32:40;;;;;;;6.30;1.57;;;6.60;95.60;;;;;;10365502;28;20206;-84
2024/01/24 16:38:01;;;;;;;5.93;2.00;;;6.50;99.90;;;;;;10309626;28;20280;-87
2024/01/24 16:43:22;;;;;;;3.67;1.53;;;6.60;95.00;;;;;;10311658;28;20193;-86
2024/01/24 16:48:44;;;;;;;3.57;1.40;;;6.50;99.90;;;;;;10400440;28;20395;-86
2024/01/24 16:54:05;;;;;;;6.17;1.37;;;6.60;49.50;;;;;;10336913;28;20217;-84
2024/01/24 16:59:27;;;;;;;3.90;1.20;;;6.60;16.00;;;;;;10432679;28;20196;-87
2024/01/24 17:04:48;;;;;;;3.17;1.10;;;6.50;24.60;;;;;;10390360;28;20461;-87
2024/01/24 17:10:14;;;;;;;3.80;1.10;;;6.50;91.20;;;;;;10370945;28;20414;-88
2024/01/24 17:15:35;;;;;;;4.87;1.53;;;6.50;19.00;;;;;;10386828;28;20208;-87
2024/01/24 17:20:56;;;;;;;4.83;1.73;;;6.50;30.10;;;;;;10343351;28;20290;-87
2024/01/24 17:26:18;;;;;;;3.60;1.30;;;6.60;1.00;;;;;;10367724;28;20244;-87
2024/01/24 17:31:41;;;;;;;4.60;1.57;;;6.60;1.00;;;;;;10282496;28;20209;-87
2024/01/24 17:37:03;;;;;;;9.33;2.40;;;6.60;1.00;;;;;;10273222;28;20466;-85
2024/01/24 17:42:25;;;;;;;12.73;3.03;;;6.50;1.00;;;;;;10355396;28;20201;-86
2024/01/24 17:47:46;;;;;;;14.87;4.07;;;6.60;1.00;;;;;;10356547;28;20247;-87
2024/01/24 17:53:11;;;;;;;17.40;3.00;;;6.60;1.00;;;;;;10294621;28;20211;-86
2024/01/24 17:58:33;;;;;;;16.60;3.20;;;6.70;1.00;;;;;;10294222;28;20508;-86
2024/01/24 18:03:55;;;;;;;20.83;3.00;;;6.60;1.00;;;;;;10378330;28;20209;-87
2024/01/24 18:09:16;;;;;;;14.27;3.03;;;6.50;1.00;;;;;;10348500;28;20267;-85
2024/01/24 18:14:37;;;;;;;12.53;2.50;;;6.60;1.00;;;;;;10328564;28;20197;-83
2024/01/24 18:19:59;;;;;;;12.57;3.73;;;6.60;1.00;;;;;;10528381;28;20237;-86
2024/01/24 18:25:20;;;;;;;19.87;3.47;;;6.60;1.00;;;;;;10512365;28;20196;-85
2024/01/24 18:30:41;;;;;;;17.13;3.17;;;6.60;1.00;;;;;;10511775;28;20224;-82
2024/01/24 18:36:04;;;;;;;22.27;3.97;;;6.50;1.00;;;;;;10302887;28;20204;-83
2024/01/24 18:41:25;;;;;;;17.47;3.47;;;6.50;1.00;;;;;;10327847;28;20299;-84
2024/01/24 18:46:50;;;;;;;17.67;3.83;;;6.50;1.00;;;;;;10401670;28;20400;-82
2024/01/24 18:52:12;;;;;;;13.00;2.70;;;6.40;1.00;;;;;;10331782;28;20232;-82
2024/01/24 18:57:33;;;;;;;11.63;2.67;;;6.50;1.00;;;;;;10299820;28;20242;-82
2024/01/24 19:02:55;;;;;;;8.33;1.93;;;6.40;1.00;;;;;;10396912;28;20227;-85
2024/01/24 19:08:16;;;;;;;12.60;1.73;;;6.40;1.00;;;;;;10368262;28;20237;-86
2024/01/24 19:13:38;;;;;;;6.17;1.43;;;6.50;1.00;;;;;;10370093;28;20193;-86
2024/01/24 19:19:00;;;;;;;6.23;1.50;;;6.40;1.00;;;;;;10509912;28;20251;-87
2024/01/24 19:24:21;;;;;;;8.70;1.60;;;6.30;1.00;;;;;;10524341;28;20193;-87
2024/01/24 19:29:47;;;;;;;7.23;2.20;;;6.40;1.00;;;;;;10513551;28;20225;-86
2024/01/24 19:35:08;;;;;;;8.97;2.87;;;6.40;1.00;;;;;;10381348;28;20504;-86
2024/01/24 19:40:32;;;;;;;4.63;1.67;;;6.40;1.00;;;;;;10400032;28;20269;-87
2024/01/24 19:45:53;;;;;;;7.37;1.27;;;6.30;1.00;;;;;;10400611;28;20215;-86
2024/01/24 19:51:14;;;;;;;6.87;1.57;;;6.30;1.00;;;;;;10368655;28;20235;-86
2024/01/24 19:56:36;;;;;;;10.10;1.83;;;6.30;1.00;;;;;;10298493;28;20200;-87
2024/01/24 20:02:00;;;;;;;8.70;1.40;;;6.40;1.00;;;;;;10275361;28;20197;-87
2024/01/24 20:07:24;;;;;;;10.33;2.00;;;6.20;1.00;;;;;;10375230;28;20230;-85
2024/01/24 20:12:47;;;;;;;10.50;1.90;;;6.20;1.00;;;;;;10351607;28;20204;-86
2024/01/24 20:18:09;;;;;;;11.33;2.27;;;6.20;1.00;;;;;;10380200;28;20236;-85
2024/01/24 20:23:31;;;;;;;13.40;2.30;;;6.20;1.00;;;;;;10311330;28;20197;-86
2024/01/24 20:28:55;;;;;;;13.57;2.73;;;6.20;99.90;;;;;;10297871;28;20260;-84
2024/01/24 20:34:31;;;;;;;13.17;2.87;;;6.10;99.90;;;;;;10297592;28;20208;-85
2024/01/24 20:39:53;;;;;;;19.83;3.13;;;6.10;99.90;;;;;;10414566;28;20203;-87
2024/01/24 20:45:14;;;;;;;14.93;3.27;;;6.10;99.90;;;;;;10323943;28;20196;-86
2024/01/24 20:50:35;;;;;;;10.17;2.30;;;6.00;1.00;;;;;;10381533;28;20228;-87
2024/01/24 20:55:57;;;;;;;13.60;2.83;;;5.90;1.00;;;;;;10296669;28;20274;-87
2024/01/24 21:01:21;;;;;;;10.33;2.03;;;5.90;99.90;;;;;;10309084;28;20209;-82
2024/01/24 21:06:43;;;;;;;11.33;2.73;;;5.80;99.90;;;;;;10279184;28;20246;-84
2024/01/24 21:12:06;;;;;;;7.73;2.13;;;5.80;1.00;;;;;;10380090;28;20254;-84
2024/01/24 21:17:28;;;;;;;13.60;3.40;;;5.90;99.90;;;;;;10446908;28;20215;-86
2024/01/24 21:22:49;;;;;;;11.90;2.20;;;5.80;99.90;;;;;;10520490;28;20188;-85
2024/01/24 21:28:11;;;;;;;9.17;1.83;;;5.80;93.70;;;;;;10509028;28;20527;-86
2024/01/24 21:33:32;;;;;;;9.37;2.33;;;5.90;1.00;;;;;;10394391;28;20232;-85
2024/01/24 21:38:54;;;;;;;12.17;2.20;;;5.80;99.90;;;;;;10381411;28;20246;-86
2024/01/24 21:44:15;;;;;;;10.73;2.77;;;5.70;99.90;;;;;;10380117;28;20379;-85
2024/01/24 21:49:40;;;;;;;13.13;1.90;;;5.70;99.90;;;;;;10395752;28;20230;-86
2024/01/24 21:55:04;;;;;;;8.37;1.37;;;5.80;90.30;;;;;;10295924;28;20195;-87
2024/01/24 22:00:27;;;;;;;5.53;1.67;;;5.80;1.00;;;;;;10295529;28;20381;-86
2024/01/24 22:05:48;;;;;;;9.00;1.97;;;5.80;99.90;;;;;;10288184;28;20238;-82
2024/01/24 22:11:09;;;;;;;5.23;1.27;;;5.70;99.90;;;;;;10285083;28;20259;-86
2024/01/24 22:16:31;;;;;;;9.57;1.70;;;5.70;1.00;;;;;;10381942;28;20263;-86
2024/01/24 22:21:52;;;;;;;7.00;1.23;;;5.70;16.40;;;;;;10518601;28;20244;-86
2024/01/24 22:27:14;;;;;;;6.20;1.20;;;5.60;99.90;;;;;;10503821;28;20215;-85
2024/01/24 22:32:35;;;;;;;7.57;1.37;;;5.60;1.00;;;;;;10436151;28;20225;-85
2024/01/24 22:37:57;;;;;;;9.67;1.77;;;5.60;1.00;;;;;;10298040;28;20206;-86
2024/01/24 22:43:19;;;;;;;4.27;1.20;;;5.60;1.00;;;;;;10321264;28;20549;-86
2024/01/24 22:48:43;;;;;;;6.17;1.60;;;5.70;1.00;;;;;;10376223;28;20230;-87
2024/01/24 22:54:04;;;;;;;7.20;1.67;;;5.70;1.00;;;;;;10293360;28;20283;-86
2024/01/24 22:59:25;;;;;;;6.47;1.50;;;5.70;1.00;;;;;;10313883;28;20208;-86
2024/01/24 23:04:47;;;;;;;4.10;1.13;;;5.70;1.00;;;;;;10332404;28;20202;-85
2024/01/24 23:10:10;;;;;;;5.77;1.60;;;5.60;1.00;;;;;;10273352;28;20426;-86
2024/01/24 23:15:32;;;;;;;8.13;1.43;;;5.70;99.90;;;;;;10389445;28;20193;-86
2024/01/24 23:20:54;;;;;;;6.80;1.63;;;5.70;99.90;;;;;;10512801;28;20304;-86
2024/01/24 23:26:15;;;;;;;7.67;1.47;;;5.70;99.90;;;;;;10485334;28;20199;-85
2024/01/24 23:31:36;;;;;;;8.60;1.57;;;5.50;99.90;;;;;;10382099;28;20223;-84
2024/01/24 23:36:58;;;;;;;7.53;2.07;;;5.50;99.90;;;;;;10381227;28;20206;-86
2024/01/24 23:42:19;;;;;;;5.63;1.53;;;5.60;99.90;;;;;;10383350;28;20246;-86
2024/01/24 23:47:41;;;;;;;9.23;2.07;;;5.60;99.90;;;;;;10382979;28;20486;-85
2024/01/24 23:53:03;;;;;;;5.23;1.80;;;5.60;99.90;;;;;;10298184;28;20377;-85
2024/01/24 23:58:24;;;;;;;9.43;1.97;;;5.50;99.90;;;;;;10290888;28;20265;-85
